Asherville, Missouri
Current Conditions -  °F | °C
As of 11:53 AM on Friday 19 Dec 2014 (Local Time) from KPOF Reporting Station
Overcast Overcast  
Wind Chill:   Ceiling: 3100
Heat Index:   Visibility: 9mi
Dew Point: -2°   Wind: 6mph
Humidity: 67%   Direction: 10°N
Pressure: 30.29"   Gusts: NA
Location:  36.9506°N, 90.1582°W
Report Text: KPOF 191753Z AUTO 01005KT 9SM OVC031 04/M02 A3029 RMK AO2 SLP263 I6000 T00391017 10039 20011 57005
Loading
Personal Weather Stations






























Interactive Weather Map New forecast layout! Learn more

10-Day Weather Forecast

Advertisements
Track Severe Weather on mobile